Time;durP1;ratioP1;P1;durP2;ratioP2;P2;SDS_P1;SDS_P2;PMS_P1;PMS_P2;Temp;Humidity;BMP_temperature;BMP_pressure;BME280_temperature;BME280_humidity;BME280_pressure;Samples;Min_cycle;Max_cycle;Signal;HPM_P1;HPM_P2
2021/12/14 00:00:23;;;;;;;6.10;2.80;;;;;;;7.57;89.04;101943.34;103408;1317;74183;-80
2021/12/14 00:02:52;;;;;;;7.40;3.40;;;;;;;7.56;89.17;101941.66;103601;1314;73580;-80
2021/12/14 00:07:49;;;;;;;7.30;3.40;;;;;;;7.54;89.08;101937.21;103571;1320;60579;-81
2021/12/14 00:15:34;;;;;;;5.10;3.20;;;;;;;7.52;88.80;101939.37;103605;1320;71785;-81
2021/12/14 00:18:04;;;;;;;6.10;3.10;;;;;;;7.52;88.68;101938.13;103188;1320;72966;-80
2021/12/14 00:20:39;;;;;;;6.20;2.80;;;;;;;7.51;88.69;101935.01;103414;1318;62271;-80
2021/12/14 00:28:21;;;;;;;4.20;2.50;;;;;;;7.52;88.46;101936.71;103325;1319;71085;-79
2021/12/14 00:30:54;;;;;;;6.30;3.00;;;;;;;7.52;88.47;101941.08;102931;1330;73011;-82
2021/12/14 00:33:30;;;;;;;5.00;2.80;;;;;;;7.53;88.40;101940.33;103563;1337;60408;-82
2021/12/14 00:35:57;;;;;;;4.50;2.60;;;;;;;7.51;88.15;101934.64;103570;1336;60812;-82
2021/12/14 00:38:29;;;;;;;5.00;2.20;;;;;;;7.50;88.35;101928.40;103578;1340;75678;-82
2021/12/14 00:41:06;;;;;;;4.80;2.80;;;;;;;7.49;88.02;101935.22;103174;1336;72541;-82
2021/12/14 00:43:34;;;;;;;7.00;3.40;;;;;;;7.47;88.18;101929.73;103601;1336;73053;-83
2021/12/14 00:46:09;;;;;;;4.30;2.60;;;;;;;7.46;88.14;101927.88;103475;1335;62052;-82
2021/12/14 00:48:38;;;;;;;4.90;3.00;;;;;;;7.46;87.94;101932.10;103390;1340;60468;-82
2021/12/14 01:01:16;;;;;;;4.90;2.30;;;;;;;7.42;87.61;101930.84;103423;1320;60600;-81
2021/12/14 01:06:14;;;;;;;4.70;2.70;;;;;;;7.43;87.49;101925.47;103422;1320;66670;-81
2021/12/14 01:08:45;;;;;;;4.80;2.50;;;;;;;7.43;87.50;101926.91;103430;1320;74512;-81
2021/12/14 01:11:20;;;;;;;7.00;3.70;;;;;;;7.42;87.46;101927.66;103711;1320;59859;-81
2021/12/14 01:13:56;;;;;;;;;;;;;;;7.41;87.55;101933.19;103476;1314;62080;-81
2021/12/14 01:32:26;;;;;;;4.60;2.90;;;;;;;7.42;86.58;101942.11;104613;1320;130926;-79
2021/12/14 01:34:56;;;;;;;4.30;2.90;;;;;;;7.42;86.54;101937.36;103416;1320;75925;-80
2021/12/14 01:37:29;;;;;;;5.50;2.80;;;;;;;7.43;86.29;101941.14;103457;1318;65373;-82
2021/12/14 01:42:32;;;;;;;5.20;3.30;;;;;;;7.45;86.14;101953.80;103237;1320;75265;-80
2021/12/14 02:00:53;;;;;;;5.20;3.00;;;;;;;7.45;85.93;101932.02;104298;1320;129311;-78
2021/12/14 02:03:27;;;;;;;5.40;2.80;;;;;;;7.44;85.80;101923.99;103629;1332;61632;-78
2021/12/14 02:05:54;;;;;;;4.90;2.70;;;;;;;7.43;85.84;101912.23;103640;1330;60113;-81
2021/12/14 02:08:28;;;;;;;5.70;3.00;;;;;;;7.44;85.49;101905.52;103734;1333;74117;-81
2021/12/14 02:10:57;;;;;;;;;;;;;;;7.45;85.77;101904.34;103057;1334;71416;-82
2021/12/14 02:13:31;;;;;;;5.70;3.00;;;;;;;7.44;85.69;101897.91;102970;1340;72981;-79
2021/12/14 02:15:58;;;;;;;5.40;3.00;;;;;;;7.44;85.67;101896.33;104442;1323;60085;-78
2021/12/14 02:18:47;;;;;;;4.80;2.90;;;;;;;7.42;85.56;101892.80;103747;1338;62406;-81
2021/12/14 02:21:16;;;;;;;4.40;3.00;;;;;;;7.41;85.35;101891.99;103672;1333;74224;-81
2021/12/14 02:42:53;;;;;;;4.40;2.50;;;;;;;7.32;85.63;101864.38;103755;1320;62097;-80
2021/12/14 02:45:27;;;;;;;5.30;3.10;;;;;;;7.32;85.69;101859.28;103744;1333;61498;-81
2021/12/14 02:47:55;;;;;;;5.70;3.60;;;;;;;7.32;85.87;101852.77;103806;1338;74134;-81
2021/12/14 02:50:26;;;;;;;7.50;2.80;;;;;;;7.32;85.70;101840.80;103675;1333;72493;-81
2021/12/14 02:52:53;;;;;;;8.30;3.60;;;;;;;7.31;85.75;101836.69;103691;1333;73130;-81
2021/12/14 02:55:27;;;;;;;4.90;3.20;;;;;;;7.29;85.82;101841.91;103700;1320;60518;31
2021/12/14 03:05:33;;;;;;;6.50;2.90;;;;;;;7.22;86.26;101811.53;103724;1333;72582;-81
2021/12/14 03:08:22;;;;;;;5.20;2.60;;;;;;;7.21;86.33;101812.70;103101;1337;62632;-81
2021/12/14 03:13:35;;;;;;;5.50;3.70;;;;;;;7.18;86.49;101808.56;103470;1317;75192;-81
2021/12/14 03:21:15;;;;;;;6.80;3.50;;;;;;;7.10;87.07;101798.84;103704;1323;128727;-82
2021/12/14 03:23:50;;;;;;;6.20;3.40;;;;;;;7.07;87.14;101790.43;103626;1334;60314;-82
2021/12/14 03:26:20;;;;;;;6.00;3.40;;;;;;;7.06;87.27;101797.52;103610;1333;75488;-82
2021/12/14 03:28:50;;;;;;;7.00;3.50;;;;;;;7.04;87.36;101783.62;103603;1333;71816;-80
2021/12/14 03:34:10;;;;;;;6.00;4.00;;;;;;;7.03;87.48;101795.66;103322;1327;61456;-79
2021/12/14 03:36:45;;;;;;;7.00;3.50;;;;;;;7.02;87.52;101795.40;103109;1339;60314;-79
2021/12/14 03:39:16;;;;;;;6.30;3.70;;;;;;;7.01;87.56;101794.42;103578;1331;74189;-79
2021/12/14 03:41:47;;;;;;;7.20;3.90;;;;;;;7.00;87.50;101799.80;104297;1320;71676;-79
2021/12/14 03:44:23;;;;;;;6.30;3.80;;;;;;;7.00;87.32;101806.70;103678;1329;72674;-82
2021/12/14 03:46:52;;;;;;;6.20;4.00;;;;;;;7.01;87.56;101803.77;103688;1332;62025;-79
2021/12/14 04:16:18;;;;;;;7.60;4.40;;;;;;;6.93;87.48;101839.41;104479;1318;130600;-78
2021/12/14 04:26:51;;;;;;;6.50;4.10;;;;;;;6.97;87.24;101836.29;103812;1318;60131;-78
2021/12/14 04:29:19;;;;;;;6.70;3.70;;;;;;;6.97;87.20;101834.69;103641;1336;60603;-78
2021/12/14 04:53:44;;;;;;;6.10;3.60;;;;;;;7.03;86.45;101806.23;103616;1333;61998;-82
2021/12/14 04:56:16;;;;;;;8.90;4.30;;;;;;;7.04;86.44;101804.59;103656;1333;60377;-81
2021/12/14 04:58:59;;;;;;;5.70;3.60;;;;;;;7.05;86.27;101807.31;103680;1333;74033;-81
2021/12/14 05:01:26;;;;;;;5.60;3.30;;;;;;;7.05;86.39;101804.88;103707;1337;71201;-81
2021/12/14 05:04:00;;;;;;;7.00;3.80;;;;;;;7.03;86.21;101797.77;103500;1331;71917;-81
2021/12/14 05:06:44;;;;;;;7.40;3.70;;;;;;;7.04;86.48;101800.54;103664;1334;63179;-81
2021/12/14 05:09:27;;;;;;;4.80;2.90;;;;;;;7.04;86.42;101796.84;103575;1332;61362;-82
2021/12/14 05:12:25;;;;;;;7.50;3.70;;;;;;;7.04;86.05;101793.85;103695;1333;75525;-81
2021/12/14 05:20:14;;;;;;;7.50;3.40;;;;;;;7.04;86.22;101808.11;104027;1314;59310;-80
2021/12/14 05:25:27;;;;;;;7.60;3.40;;;;;;;7.02;86.21;101805.61;103770;1331;72734;-79
2021/12/14 05:27:58;;;;;;;6.70;3.70;;;;;;;7.03;86.21;101801.15;103789;1331;72617;-80
2021/12/14 05:30:34;;;;;;;7.70;3.80;;;;;;;7.04;85.98;101801.23;103775;1337;72940;-82
2021/12/14 05:33:04;;;;;;;7.80;3.70;;;;;;;7.06;86.06;101806.05;103086;1337;60620;-80
2021/12/14 05:35:32;;;;;;;5.70;3.80;;;;;;;7.04;85.78;101810.92;103146;1337;61386;-78
2021/12/14 05:38:01;;;;;;;6.40;3.90;;;;;;;7.05;85.69;101808.39;103719;1336;74306;-79
2021/12/14 05:56:22;;;;;;;6.00;3.50;;;;;;;7.06;85.51;101805.33;103505;1317;131706;-79
2021/12/14 05:58:50;;;;;;;5.50;3.40;;;;;;;7.04;85.44;101808.95;103663;1329;63652;-79
2021/12/14 06:01:21;;;;;;;6.30;3.90;;;;;;;7.05;85.43;101801.86;103670;1334;59161;-80
2021/12/14 06:03:55;;;;;;;4.90;2.90;;;;;;;7.05;85.32;101798.68;103311;1333;420983;-78
2021/12/14 06:06:29;;;;;;;7.20;3.80;;;;;;;7.06;85.41;101797.23;103727;1331;72102;-80
2021/12/14 06:09:08;;;;;;;7.00;3.50;;;;;;;7.06;85.23;101793.49;103641;1333;75093;-82
2021/12/14 06:11:35;;;;;;;5.50;3.00;;;;;;;7.07;85.33;101785.31;103572;1333;61457;-82
2021/12/14 06:14:03;;;;;;;5.70;3.40;;;;;;;7.06;85.43;101780.64;103689;1333;59322;-79
2021/12/14 06:16:36;;;;;;;6.00;4.20;;;;;;;7.05;85.37;101786.20;103648;1337;75755;-80
2021/12/14 06:24:41;;;;;;;6.80;4.20;;;;;;;7.04;85.58;101780.65;103057;1320;129650;-80
2021/12/14 06:27:11;;;;;;;7.60;4.00;;;;;;;7.03;85.47;101767.89;103145;1321;60664;-82
2021/12/14 06:29:42;;;;;;;4.60;3.30;;;;;;;7.02;85.61;101769.02;103810;1334;75210;-81
2021/12/14 06:40:18;;;;;;;5.60;3.40;;;;;;;7.03;85.69;101784.95;103515;1318;60327;-79
2021/12/14 06:56:11;;;;;;;6.10;3.20;;;;;;;7.06;85.79;101803.55;103708;1320;73923;-80
2021/12/14 06:58:55;;;;;;;8.40;3.90;;;;;;;7.06;85.68;101813.41;103289;1320;74633;-81
2021/12/14 07:12:27;;;;;;;8.60;3.80;;;;;;;7.04;86.30;101816.22;103921;1320;69152;-78
2021/12/14 07:14:58;;;;;;;7.50;4.30;;;;;;;7.06;86.27;101823.94;103714;1333;74031;-78
2021/12/14 07:17:42;;;;;;;7.00;4.30;;;;;;;7.08;86.15;101821.48;103716;1337;61858;-79
2021/12/14 07:20:11;;;;;;;7.80;4.30;;;;;;;7.10;86.02;101827.34;103174;1339;60664;-79
2021/12/14 07:22:49;;;;;;;7.20;4.00;;;;;;;7.11;86.16;101827.08;103709;1333;74261;-79
2021/12/14 07:25:20;;;;;;;14.40;4.90;;;;;;;7.11;86.08;101827.20;103739;1332;72531;-78
2021/12/14 07:27:49;;;;;;;7.60;4.00;;;;;;;7.11;86.33;101832.88;103619;1333;72968;-77
2021/12/14 07:30:31;;;;;;;7.00;4.00;;;;;;;7.12;86.27;101836.84;103737;1332;63351;-77
2021/12/14 07:33:30;;;;;;;9.40;3.90;;;;;;;7.13;86.20;101842.56;103588;1333;63041;-77
2021/12/14 07:36:09;;;;;;;9.50;5.20;;;;;;;7.13;86.33;101843.03;103562;1333;74336;-77
2021/12/14 07:38:49;;;;;;;6.20;4.30;;;;;;;7.14;86.22;101845.32;103594;1333;72463;-77
2021/12/14 07:41:33;;;;;;;8.80;4.00;;;;;;;7.14;86.52;101851.08;103595;1333;73022;-78
2021/12/14 07:44:02;;;;;;;7.60;4.10;;;;;;;7.15;86.52;101857.71;103623;1333;63491;-78
2021/12/14 07:46:35;;;;;;;10.80;4.40;;;;;;;7.15;86.65;101864.58;103615;1337;60324;-78
2021/12/14 07:49:21;;;;;;;7.20;4.20;;;;;;;7.15;86.75;101867.83;103587;1332;74257;-78
2021/12/14 07:52:08;;;;;;;8.40;4.80;;;;;;;7.17;86.86;101867.02;103595;1332;71680;-77
2021/12/14 07:54:45;;;;;;;8.90;4.70;;;;;;;7.19;86.88;101865.48;103686;1333;74163;-77
2021/12/14 07:57:14;;;;;;;7.10;3.90;;;;;;;7.20;87.08;101859.22;103526;1336;61743;-78
2021/12/14 07:59:55;;;;;;;8.00;4.90;;;;;;;7.17;87.07;101847.30;103655;1332;59592;-78
2021/12/14 08:02:40;;;;;;;10.70;5.50;;;;;;;7.21;87.13;101850.69;103585;1339;73208;-78
2021/12/14 08:05:47;;;;;;;8.00;5.00;;;;;;;7.23;87.07;101855.65;103600;1335;69944;-76
2021/12/14 08:08:53;;;;;;;10.00;5.50;;;;;;;7.24;87.00;101855.86;103039;1333;71928;-75
2021/12/14 08:11:46;;;;;;;8.60;4.90;;;;;;;7.27;87.05;101861.13;103622;1335;62263;-76
2021/12/14 08:14:26;;;;;;;8.30;4.50;;;;;;;7.29;87.04;101861.80;103639;1333;61079;-76
2021/12/14 08:17:09;;;;;;;9.10;4.50;;;;;;;7.32;87.14;101863.71;103633;1333;73755;-76
2021/12/14 08:19:44;;;;;;;15.30;5.40;;;;;;;7.33;87.04;101861.36;103634;1336;72728;-75
2021/12/14 08:22:31;;;;;;;7.40;4.50;;;;;;;7.35;87.11;101866.80;103426;1336;73083;-78
2021/12/14 08:25:09;;;;;;;10.40;5.80;;;;;;;7.37;87.25;101871.41;103654;1333;63452;-76
2021/12/14 08:27:41;;;;;;;8.00;5.00;;;;;;;7.39;87.12;101876.71;103528;1333;60909;-76
2021/12/14 08:30:15;;;;;;;8.90;5.70;;;;;;;7.39;87.32;101877.96;103603;1339;73831;-76
2021/12/14 08:32:42;;;;;;;9.70;6.10;;;;;;;7.40;87.51;101867.63;103583;1333;71884;-75
2021/12/14 08:35:26;;;;;;;10.30;6.20;;;;;;;7.41;87.49;101869.30;103547;1336;73066;-75
2021/12/14 08:38:05;;;;;;;9.50;5.70;;;;;;;7.43;87.61;101881.45;103598;1332;60828;-75
2021/12/14 08:40:43;;;;;;;11.30;5.80;;;;;;;7.45;87.53;101879.41;103560;1336;61621;-77
2021/12/14 08:43:21;;;;;;;9.60;5.80;;;;;;;7.47;87.54;101881.27;103661;1333;75611;-77
2021/12/14 08:45:57;;;;;;;9.60;6.00;;;;;;;7.50;87.90;101878.09;103656;1333;72681;-77
2021/12/14 08:48:30;;;;;;;12.50;7.30;;;;;;;7.51;87.86;101882.04;103626;1332;75052;-78
2021/12/14 08:51:20;;;;;;;12.10;6.80;;;;;;;7.53;87.84;101872.88;103139;1339;60738;-77
2021/12/14 08:53:56;;;;;;;13.90;7.90;;;;;;;7.54;87.84;101875.08;103587;1336;60638;-78
2021/12/14 08:56:29;;;;;;;12.60;7.60;;;;;;;7.55;87.98;101883.64;103550;1333;74144;-77
2021/12/14 08:58:56;;;;;;;10.80;7.10;;;;;;;7.56;88.05;101886.05;103077;1337;72582;-78
2021/12/14 09:01:40;;;;;;;13.20;8.00;;;;;;;7.57;88.01;101887.55;103551;1337;73999;-77
2021/12/14 09:04:32;;;;;;;11.30;6.80;;;;;;;7.57;88.34;101884.34;103553;1333;61184;-77
2021/12/14 09:07:07;;;;;;;12.70;7.50;;;;;;;7.61;88.21;101878.97;103194;1332;61445;-77
2021/12/14 09:09:44;;;;;;;11.00;6.90;;;;;;;7.64;88.27;101880.66;103581;1333;73111;-77
2021/12/14 09:12:20;;;;;;;13.20;8.20;;;;;;;7.65;88.23;101877.51;103629;1339;72686;-77
2021/12/14 09:14:51;;;;;;;10.90;7.20;;;;;;;7.68;88.19;101883.98;103638;1333;73242;-76
2021/12/14 09:17:22;;;;;;;10.50;6.70;;;;;;;7.70;88.24;101885.96;103638;1330;61954;-76
2021/12/14 09:20:15;;;;;;;11.50;7.30;;;;;;;7.72;88.20;101878.39;102993;1340;60456;-77
2021/12/14 09:22:45;;;;;;;16.50;8.50;;;;;;;7.75;88.27;101878.80;103164;1334;75158;-76
2021/12/14 09:25:18;;;;;;;16.50;9.10;;;;;;;7.80;88.07;101879.31;103564;1333;71793;-76
2021/12/14 09:27:46;;;;;;;15.90;9.00;;;;;;;7.85;88.07;101879.96;103588;1333;73981;-77
2021/12/14 09:30:14;;;;;;;13.70;8.90;;;;;;;7.89;88.01;101882.08;103156;1340;61725;-76
2021/12/14 09:32:44;;;;;;;17.60;9.50;;;;;;;7.91;87.60;101881.20;103615;1339;60486;-77
2021/12/14 09:35:17;;;;;;;16.40;9.00;;;;;;;7.95;87.65;101878.56;103633;1333;74217;-77
2021/12/14 09:37:46;;;;;;;16.00;9.20;;;;;;;8.02;87.38;101882.05;103544;1341;71441;-76
2021/12/14 09:40:27;;;;;;;14.70;8.90;;;;;;;8.05;87.30;101882.65;103558;1332;72654;-76
2021/12/14 09:43:03;;;;;;;14.40;8.60;;;;;;;8.08;86.77;101882.21;103585;1337;59726;-76
2021/12/14 09:45:37;;;;;;;16.40;9.80;;;;;;;8.15;86.59;101879.74;103633;1332;60745;-76
2021/12/14 09:48:15;;;;;;;14.30;9.50;;;;;;;8.24;86.53;101875.48;103597;1333;74147;-77
2021/12/14 09:50:44;;;;;;;17.00;9.60;;;;;;;8.32;85.86;101872.69;103574;1337;72496;-76
2021/12/14 09:53:16;;;;;;;13.10;9.00;;;;;;;8.42;86.20;101873.41;102986;1339;71912;-77
2021/12/14 09:55:46;;;;;;;12.30;7.40;;;;;;;8.46;85.48;101883.06;103473;1333;61531;-76
2021/12/14 09:58:18;;;;;;;15.50;9.60;;;;;;;8.47;85.30;101880.02;103563;1333;61615;-76
2021/12/14 10:01:05;;;;;;;10.70;6.80;;;;;;;8.50;85.56;101877.68;103216;1332;72214;-77
2021/12/14 10:03:33;;;;;;;14.90;9.30;;;;;;;8.52;85.07;101877.48;103600;1332;70966;-77
2021/12/14 10:06:15;;;;;;;14.10;8.60;;;;;;;8.55;85.10;101871.39;103595;1337;73200;-77
2021/12/14 10:08:47;;;;;;;12.90;9.30;;;;;;;8.59;85.14;101867.75;103225;1337;60670;-77
2021/12/14 10:11:26;;;;;;;13.30;9.20;;;;;;;8.59;84.47;101870.35;103581;1338;60911;-76
2021/12/14 10:14:01;;;;;;;14.70;9.80;;;;;;;8.68;84.92;101869.79;103639;1333;74719;-77
2021/12/14 10:16:28;;;;;;;14.40;8.40;;;;;;;8.77;84.32;101866.38;103554;1334;71314;-77
2021/12/14 10:18:58;;;;;;;13.60;9.90;;;;;;;8.83;83.50;101867.70;103542;1332;72177;-77
2021/12/14 10:21:29;;;;;;;11.30;6.70;;;;;;;8.90;83.52;101867.80;103427;1337;59666;-77
2021/12/14 10:24:04;;;;;;;14.90;9.40;;;;;;;8.91;83.30;101866.27;103612;1336;61430;-77
2021/12/14 10:26:36;;;;;;;13.90;8.70;;;;;;;8.96;83.06;101866.39;103574;1337;74348;-76
2021/12/14 10:29:04;;;;;;;13.30;8.00;;;;;;;8.98;82.91;101867.29;103670;1337;71115;-77
2021/12/14 10:31:44;;;;;;;11.70;7.90;;;;;;;8.98;82.43;101861.13;102983;1341;73062;-77
2021/12/14 10:34:23;;;;;;;13.60;9.00;;;;;;;8.98;82.46;101863.76;103683;1337;62172;-77
2021/12/14 10:37:36;;;;;;;15.40;8.60;;;;;;;9.01;82.62;101860.20;103358;1333;60318;-76
2021/12/14 10:43:12;;;;;;;16.20;9.40;;;;;;;9.14;82.05;101861.85;103425;1333;71586;-76
2021/12/14 10:45:42;;;;;;;13.00;8.60;;;;;;;9.23;82.04;101865.79;103531;1333;71628;-76
2021/12/14 10:48:18;;;;;;;8.40;5.00;;;;;;;9.29;82.05;101866.16;103554;1337;63584;-76
2021/12/14 10:50:48;;;;;;;11.70;7.00;;;;;;;9.30;81.42;101866.73;103595;1333;59749;-76
2021/12/14 10:53:21;;;;;;;14.30;8.90;;;;;;;9.26;81.31;101862.38;103669;1336;75385;-77
2021/12/14 10:56:13;;;;;;;16.20;9.20;;;;;;;9.20;81.68;101865.50;103647;1333;71493;-76
2021/12/14 10:58:43;;;;;;;13.50;8.10;;;;;;;9.15;81.19;101859.42;103220;1337;73020;-77
2021/12/14 11:01:20;;;;;;;14.30;9.60;;;;;;;9.10;81.43;101864.31;103524;1332;62313;-78
2021/12/14 11:03:51;;;;;;;13.30;8.80;;;;;;;9.03;81.69;101864.20;103656;1333;60375;-78
2021/12/14 11:06:27;;;;;;;13.50;9.40;;;;;;;8.97;82.37;101861.89;103287;1337;74929;-78
2021/12/14 11:09:39;;;;;;;;;;;;;;;8.92;82.37;101861.28;103656;1333;72142;-76
2021/12/14 11:11:58;;;;;;;13.60;7.90;;;;;;;8.89;82.78;101865.83;103586;1332;73040;-77
2021/12/14 11:14:34;;;;;;;10.20;6.70;;;;;;;8.86;82.92;101860.91;103667;1334;59448;-77
2021/12/14 11:20:06;;;;;;;15.10;9.50;;;;;;;8.79;83.25;101857.98;103571;1333;74242;-78
2021/12/14 11:22:48;;;;;;;16.40;9.10;;;;;;;8.77;83.53;101857.67;103602;1333;72444;-79
2021/12/14 11:25:54;;;;;;;12.90;8.40;;;;;;;8.75;83.57;101853.64;103485;1336;74280;-78
2021/12/14 11:28:51;;;;;;;14.10;8.30;;;;;;;8.74;83.84;101855.11;103687;1333;62003;-78
2021/12/14 11:31:30;;;;;;;12.00;8.70;;;;;;;8.74;83.87;101855.11;103117;1337;60429;-78
2021/12/14 11:34:03;;;;;;;13.10;8.30;;;;;;;8.71;83.95;101856.11;103569;1333;75260;-78
2021/12/14 11:36:31;;;;;;;15.80;10.70;;;;;;;8.67;83.98;101852.89;103459;1333;70452;-78
2021/12/14 11:39:36;;;;;;;12.50;9.20;;;;;;;8.66;84.04;101851.63;103625;1332;73904;-79
2021/12/14 11:42:29;;;;;;;13.90;9.00;;;;;;;8.64;84.49;101846.52;103404;1333;62406;-78
2021/12/14 11:45:17;;;;;;;12.70;8.20;;;;;;;8.66;84.76;101844.75;103642;1333;59375;-78
2021/12/14 11:47:54;;;;;;;13.30;8.20;;;;;;;8.70;84.87;101847.71;103403;1333;74371;-78
2021/12/14 11:50:34;;;;;;;11.70;7.80;;;;;;;8.69;84.16;101849.55;103568;1333;71351;-78
2021/12/14 11:53:05;;;;;;;14.60;9.50;;;;;;;8.69;84.43;101853.92;103456;1333;74280;-79
2021/12/14 11:55:56;;;;;;;13.20;8.40;;;;;;;8.70;84.81;101846.26;103617;1333;62083;-79
2021/12/14 11:58:43;;;;;;;12.70;8.10;;;;;;;8.73;84.81;101850.65;103498;1333;61361;-79
2021/12/14 12:01:30;;;;;;;14.70;9.40;;;;;;;8.76;84.82;101856.02;103266;1334;74257;-79
2021/12/14 12:03:59;;;;;;;10.80;7.80;;;;;;;8.81;84.87;101857.33;103634;1332;72482;-78
2021/12/14 12:12:03;;;;;;;14.20;8.90;;;;;;;8.80;85.07;101842.81;103583;1333;61820;-77
2021/12/14 12:14:38;;;;;;;15.50;10.20;;;;;;;8.76;85.05;101846.29;103596;1339;75389;-78
2021/12/14 12:17:20;;;;;;;12.90;7.60;;;;;;;8.74;85.29;101847.84;103579;1332;70596;-76
2021/12/14 12:20:02;;;;;;;13.30;8.40;;;;;;;8.72;85.20;101850.73;103648;1333;72967;-77
2021/12/14 12:22:49;;;;;;;11.20;7.80;;;;;;;8.71;85.46;101851.51;103306;1334;61140;-77
2021/12/14 12:25:20;;;;;;;14.80;9.00;;;;;;;8.70;85.73;101857.60;103632;1337;60339;-77
2021/12/14 12:27:50;;;;;;;12.80;8.00;;;;;;;8.69;85.69;101856.41;103592;1333;74305;-77
2021/12/14 12:30:30;;;;;;;11.80;8.00;;;;;;;8.69;86.12;101862.25;103628;1333;72482;-78
2021/12/14 12:33:02;;;;;;;14.50;8.10;;;;;;;8.69;85.86;101866.84;103611;1333;72943;-78
2021/12/14 12:35:44;;;;;;;10.90;7.70;;;;;;;8.70;86.01;101862.19;103625;1333;63465;-77
2021/12/14 12:38:20;;;;;;;10.70;7.10;;;;;;;8.71;86.22;101866.48;103606;1333;60310;-76
2021/12/14 12:40:55;;;;;;;12.10;7.40;;;;;;;8.70;86.33;101867.15;103480;1340;73394;-77
2021/12/14 12:43:29;;;;;;;21.80;10.20;;;;;;;8.68;86.19;101868.67;103660;1337;71292;-78
2021/12/14 12:46:00;;;;;;;13.20;8.80;;;;;;;8.68;86.70;101872.02;103550;1333;72977;-78
2021/12/14 12:48:48;;;;;;;12.90;8.00;;;;;;;8.72;86.04;101873.67;103625;1333;62375;-78
2021/12/14 12:51:44;;;;;;;15.50;9.20;;;;;;;8.72;86.08;101872.54;103558;1332;61419;-77
2021/12/14 12:54:46;;;;;;;14.30;8.10;;;;;;;8.70;86.02;101872.53;103612;1334;75321;-78
2021/12/14 12:57:35;;;;;;;11.20;7.10;;;;;;;8.65;86.44;101869.47;103633;1333;72442;-78
2021/12/14 13:00:29;;;;;;;11.60;6.70;;;;;;;8.63;86.56;101871.41;103520;1340;72936;-78
2021/12/14 13:03:01;;;;;;;12.20;8.10;;;;;;;8.61;86.57;101867.59;103590;1333;62784;-77
2021/12/14 13:05:53;;;;;;;;;;;;;;;;;;;;;
2021/12/14 13:08:52;;;;;;;12.50;7.60;;;;;;;8.59;86.96;101867.43;103599;1339;73161;-77
2021/12/14 13:12:14;;;;;;;16.60;8.60;;;;;;;8.61;86.93;101870.55;103606;1335;71596;-76
2021/12/14 13:14:40;;;;;;;15.90;8.50;;;;;;;8.61;87.15;101871.41;103021;1341;71940;-79
2021/12/14 13:17:19;;;;;;;14.30;9.00;;;;;;;8.61;86.92;101865.11;103087;1334;59197;-77
2021/12/14 13:19:58;;;;;;;12.50;8.20;;;;;;;8.62;87.09;101871.65;103623;1332;61742;-77
2021/12/14 13:22:28;;;;;;;14.40;8.80;;;;;;;8.63;87.15;101873.52;103574;1333;75276;-75
2021/12/14 13:24:58;;;;;;;13.20;8.80;;;;;;;8.64;87.30;101874.13;103459;1336;72444;-77
2021/12/14 13:27:25;;;;;;;13.90;8.80;;;;;;;8.65;87.35;101871.62;103649;1333;72755;-77
2021/12/14 13:30:07;;;;;;;12.50;8.60;;;;;;;8.64;87.59;101874.01;103584;1333;62355;-77
2021/12/14 13:32:50;;;;;;;14.60;8.50;;;;;;;8.60;87.99;101877.00;103589;1333;61725;-78
2021/12/14 13:35:34;;;;;;;15.50;9.60;;;;;;;8.52;89.08;101880.14;103513;1336;74292;-79
2021/12/14 13:38:12;;;;;;;17.80;8.90;;;;;;;8.42;90.35;101886.09;103604;1320;71459;-77
2021/12/14 13:40:43;;;;;;;14.70;8.60;;;;;;;8.36;90.99;101886.77;103598;1332;73988;-78
2021/12/14 13:43:10;;;;;;;15.00;8.50;;;;;;;8.31;91.68;101886.66;103329;1339;62123;-77
2021/12/14 13:45:44;;;;;;;12.30;7.40;;;;;;;8.26;92.20;101886.02;103614;1333;60792;-77
2021/12/14 13:48:21;;;;;;;13.50;9.40;;;;;;;8.22;92.77;101885.64;103584;1332;74416;-77
2021/12/14 13:50:55;;;;;;;17.90;8.90;;;;;;;8.19;93.00;101890.34;103609;1333;71690;-77
2021/12/14 13:53:24;;;;;;;15.40;9.60;;;;;;;8.15;93.52;101890.83;103373;1339;73983;-77
2021/12/14 13:56:18;;;;;;;18.00;8.50;;;;;;;8.14;93.75;101892.48;103604;1334;63513;-78
2021/12/14 13:58:48;;;;;;;16.70;8.90;;;;;;;8.13;93.64;101896.58;103508;1337;60860;-77
2021/12/14 14:01:20;;;;;;;16.70;9.80;;;;;;;8.14;93.85;101901.96;103570;1333;75411;-76
2021/12/14 14:03:50;;;;;;;17.20;9.50;;;;;;;8.14;94.09;101907.84;103082;1333;613699;-76
2021/12/14 14:06:20;;;;;;;17.80;10.90;;;;;;;8.11;94.44;101914.18;103626;1338;71821;-76
2021/12/14 14:08:55;;;;;;;14.20;8.30;;;;;;;8.11;94.28;101918.05;103624;1333;62291;-78
2021/12/14 14:11:28;;;;;;;19.80;10.20;;;;;;;8.09;94.82;101915.98;103526;1336;60868;-77
2021/12/14 14:13:59;;;;;;;18.00;10.00;;;;;;;8.07;95.13;101914.04;103621;1332;75520;-77
2021/12/14 14:16:58;;;;;;;16.50;9.60;;;;;;;8.07;95.41;101914.98;103628;1333;71429;-78
2021/12/14 14:19:32;;;;;;;13.90;8.40;;;;;;;8.05;95.76;101914.86;103548;1334;73160;-77
2021/12/14 14:22:04;;;;;;;18.10;8.30;;;;;;;8.04;95.97;101916.05;103526;1336;63085;-76
2021/12/14 14:24:35;;;;;;;18.10;10.70;;;;;;;8.02;96.12;101919.19;103634;1334;61482;-77
2021/12/14 14:27:05;;;;;;;19.70;10.30;;;;;;;8.01;96.14;101919.98;103578;1333;74040;-77
2021/12/14 14:29:44;;;;;;;12.70;7.00;;;;;;;8.00;96.30;101923.85;103601;1333;71437;-78
2021/12/14 14:32:30;;;;;;;17.00;9.20;;;;;;;7.97;96.63;101926.84;103299;1336;72921;-78
2021/12/14 14:35:03;;;;;;;;;;;;;;;7.96;96.63;101924.67;103629;1334;63024;-78
2021/12/14 14:37:33;;;;;;;18.60;9.30;;;;;;;7.94;96.75;101924.77;103574;1333;61156;-77
2021/12/14 14:40:17;;;;;;;17.30;9.40;;;;;;;7.93;96.92;101921.16;103472;1337;75125;-78
2021/12/14 14:42:54;;;;;;;20.00;10.30;;;;;;;7.93;96.71;101917.66;103591;1334;70362;-78
2021/12/14 14:45:26;;;;;;;18.80;10.20;;;;;;;7.94;96.77;101916.20;103643;1333;75436;-79
2021/12/14 14:47:53;;;;;;;18.50;10.30;;;;;;;7.94;96.38;101918.24;103066;1333;62326;-78
2021/12/14 14:50:32;;;;;;;17.60;10.20;;;;;;;7.96;96.45;101918.86;103610;1337;59498;-77
2021/12/14 14:53:30;;;;;;;18.20;10.40;;;;;;;7.97;96.13;101932.18;103646;1332;74200;-78
2021/12/14 14:56:01;;;;;;;11.70;6.90;;;;;;;7.98;95.79;101927.29;103601;1332;70113;-79
2021/12/14 14:58:37;;;;;;;18.70;10.00;;;;;;;7.95;95.65;101925.09;103602;1333;74077;-79
2021/12/14 15:01:22;;;;;;;17.80;9.80;;;;;;;7.95;95.60;101924.87;103587;1333;63338;-78
2021/12/14 15:03:59;;;;;;;14.70;8.60;;;;;;;7.95;95.56;101915.95;103619;1337;60371;-79
2021/12/14 15:06:32;;;;;;;15.90;8.80;;;;;;;7.94;95.48;101919.88;103580;1332;74295;-78
2021/12/14 15:09:09;;;;;;;14.70;8.40;;;;;;;7.93;95.41;101927.36;103563;1333;70440;-78
2021/12/14 15:12:04;;;;;;;15.20;8.90;;;;;;;7.92;95.55;101921.25;103478;1332;72985;-79
2021/12/14 15:14:37;;;;;;;19.60;11.10;;;;;;;7.92;95.49;101924.79;103497;1332;62365;-78
2021/12/14 15:17:16;;;;;;;16.60;9.30;;;;;;;7.93;95.19;101925.77;103521;1335;61777;-79
2021/12/14 15:19:45;;;;;;;19.20;9.70;;;;;;;7.94;95.25;101926.05;103281;1342;75125;-78
2021/12/14 15:22:54;;;;;;;17.20;9.90;;;;;;;7.94;95.12;101924.48;103445;1339;72556;-79
2021/12/14 15:25:28;;;;;;;17.50;10.10;;;;;;;7.95;95.10;101926.48;103131;1340;72945;-78
2021/12/14 15:27:58;;;;;;;15.80;9.30;;;;;;;7.95;95.02;101921.23;103577;1336;62297;-78
2021/12/14 15:30:39;;;;;;;18.40;10.20;;;;;;;7.95;95.19;101917.36;103521;1336;60739;-77
2021/12/14 15:33:31;;;;;;;18.20;10.60;;;;;;;7.95;95.28;101922.48;103626;1332;74185;-78
2021/12/14 15:36:04;;;;;;;17.60;10.10;;;;;;;7.94;95.55;101922.53;103589;1332;70503;-77
2021/12/14 15:38:35;;;;;;;16.00;8.40;;;;;;;7.92;95.51;101925.86;103345;1337;74027;-77
2021/12/14 15:41:08;;;;;;;16.00;9.50;;;;;;;7.91;95.61;101920.52;103528;1333;62170;-78
2021/12/14 15:43:39;;;;;;;16.20;9.70;;;;;;;7.88;95.46;101920.91;103263;1333;61903;-77
2021/12/14 15:46:19;;;;;;;19.20;10.60;;;;;;;7.87;95.59;101921.34;103635;1333;74018;-76
2021/12/14 15:49:08;;;;;;;18.70;9.90;;;;;;;7.86;95.59;101924.75;103657;1331;71393;-77
2021/12/14 15:51:44;;;;;;;16.70;9.50;;;;;;;7.86;95.54;101929.55;103251;1333;74016;-78